sensor_id;sensor_type;location;lat;lon;timestamp;pressure;altitude;pressure_sealevel;temperature;humidity
42727;BME280;28372;56.832;60.658;2023-02-22T00:01:01;95750.78;;;-5.55;100.00
42727;BME280;28372;56.832;60.658;2023-02-22T00:03:34;95755.41;;;-5.52;100.00
42727;BME280;28372;56.832;60.658;2023-02-22T00:06:03;95747.34;;;-5.46;100.00
42727;BME280;28372;56.832;60.658;2023-02-22T00:08:34;95744.25;;;-5.48;100.00
42727;BME280;28372;56.832;60.658;2023-02-22T00:11:06;95739.88;;;-5.44;100.00
42727;BME280;28372;56.832;60.658;2023-02-22T00:13:37;95744.06;;;-5.43;100.00
42727;BME280;28372;56.832;60.658;2023-02-22T00:16:05;95720.59;;;-5.57;100.00
42727;BME280;28372;56.832;60.658;2023-02-22T00:18:33;95735.84;;;-5.42;100.00
42727;BME280;28372;56.832;60.658;2023-02-22T00:21:01;95741.13;;;-5.42;100.00
42727;BME280;28372;56.832;60.658;2023-02-22T00:23:30;95748.09;;;-5.37;100.00
42727;BME280;28372;56.832;60.658;2023-02-22T00:25:58;95741.25;;;-5.38;100.00
42727;BME280;28372;56.832;60.658;2023-02-22T00:28:27;95723.91;;;-5.39;100.00
42727;BME280;28372;56.832;60.658;2023-02-22T00:30:57;95736.44;;;-5.36;100.00
42727;BME280;28372;56.832;60.658;2023-02-22T00:33:26;95738.31;;;-5.37;100.00
42727;BME280;28372;56.832;60.658;2023-02-22T00:35:53;95725.63;;;-5.43;100.00
42727;BME280;28372;56.832;60.658;2023-02-22T00:38:21;95735.19;;;-5.39;100.00
42727;BME280;28372;56.832;60.658;2023-02-22T00:40:49;95740.78;;;-5.40;100.00
42727;BME280;28372;56.832;60.658;2023-02-22T00:43:17;95735.19;;;-5.39;100.00
42727;BME280;28372;56.832;60.658;2023-02-22T00:45:46;95746.53;;;-5.38;100.00
42727;BME280;28372;56.832;60.658;2023-02-22T00:48:16;95748.53;;;-5.35;100.00
42727;BME280;28372;56.832;60.658;2023-02-22T00:50:44;95752.13;;;-5.40;100.00
42727;BME280;28372;56.832;60.658;2023-02-22T00:53:14;95755.69;;;-5.44;100.00
42727;BME280;28372;56.832;60.658;2023-02-22T00:55:42;95751.25;;;-5.53;100.00
42727;BME280;28372;56.832;60.658;2023-02-22T00:58:10;95769.66;;;-5.44;100.00
42727;BME280;28372;56.832;60.658;2023-02-22T01:00:40;95763.59;;;-5.44;100.00
42727;BME280;28372;56.832;60.658;2023-02-22T01:03:10;95762.84;;;-5.45;100.00
42727;BME280;28372;56.832;60.658;2023-02-22T01:05:38;95767.94;;;-5.48;100.00
42727;BME280;28372;56.832;60.658;2023-02-22T01:08:08;95772.13;;;-5.47;100.00
42727;BME280;28372;56.832;60.658;2023-02-22T01:10:37;95773.22;;;-5.48;100.00
42727;BME280;28372;56.832;60.658;2023-02-22T01:13:07;95778.81;;;-5.50;100.00
42727;BME280;28372;56.832;60.658;2023-02-22T01:15:37;95781.31;;;-5.54;100.00
42727;BME280;28372;56.832;60.658;2023-02-22T01:18:06;95770.03;;;-5.63;100.00
42727;BME280;28372;56.832;60.658;2023-02-22T01:20:34;95775.44;;;-5.59;100.00
42727;BME280;28372;56.832;60.658;2023-02-22T01:23:03;95783.78;;;-5.57;100.00
42727;BME280;28372;56.832;60.658;2023-02-22T01:25:34;95776.53;;;-5.60;100.00
42727;BME280;28372;56.832;60.658;2023-02-22T01:28:04;95773.91;;;-5.60;100.00
42727;BME280;28372;56.832;60.658;2023-02-22T01:30:34;95775.16;;;-5.66;100.00
42727;BME280;28372;56.832;60.658;2023-02-22T01:33:04;95779.66;;;-5.67;100.00
42727;BME280;28372;56.832;60.658;2023-02-22T01:35:35;95788.19;;;-5.70;100.00
42727;BME280;28372;56.832;60.658;2023-02-22T01:38:09;95787.41;;;-5.71;100.00
42727;BME280;28372;56.832;60.658;2023-02-22T01:40:40;95783.88;;;-5.75;100.00
42727;BME280;28372;56.832;60.658;2023-02-22T01:46:03;95785.88;;;-5.72;100.00
42727;BME280;28372;56.832;60.658;2023-02-22T01:48:42;95772.88;;;-5.77;100.00
42727;BME280;28372;56.832;60.658;2023-02-22T01:51:21;95777.06;;;-5.76;100.00
42727;BME280;28372;56.832;60.658;2023-02-22T01:56:22;95804.16;;;-5.84;100.00
42727;BME280;28372;56.832;60.658;2023-02-22T01:58:55;95808.03;;;-5.81;100.00
42727;BME280;28372;56.832;60.658;2023-02-22T02:01:25;95809.75;;;-5.86;100.00
42727;BME280;28372;56.832;60.658;2023-02-22T02:03:56;95795.81;;;-5.86;100.00
42727;BME280;28372;56.832;60.658;2023-02-22T02:06:27;95798.91;;;-5.84;100.00
42727;BME280;28372;56.832;60.658;2023-02-22T02:09:20;95814.56;;;-5.88;100.00
42727;BME280;28372;56.832;60.658;2023-02-22T02:11:50;95823.59;;;-5.97;100.00
42727;BME280;28372;56.832;60.658;2023-02-22T02:14:20;95843.72;;;-6.01;100.00
42727;BME280;28372;56.832;60.658;2023-02-22T02:16:49;95846.38;;;-6.01;100.00
42727;BME280;28372;56.832;60.658;2023-02-22T02:19:49;95862.16;;;-6.01;100.00
42727;BME280;28372;56.832;60.658;2023-02-22T02:25:09;95865.25;;;-6.17;100.00
42727;BME280;28372;56.832;60.658;2023-02-22T02:37:10;95874.03;;;-6.57;100.00
42727;BME280;28372;56.832;60.658;2023-02-22T02:42:37;95903.44;;;-6.55;99.13
42727;BME280;28372;56.832;60.658;2023-02-22T02:45:12;95900.19;;;-6.69;98.96
42727;BME280;28372;56.832;60.658;2023-02-22T02:47:44;95914.59;;;-6.58;100.00
42727;BME280;28372;56.832;60.658;2023-02-22T02:50:26;95902.94;;;-6.65;99.70
42727;BME280;28372;56.832;60.658;2023-02-22T02:53:00;95908.69;;;-6.63;99.55
42727;BME280;28372;56.832;60.658;2023-02-22T02:55:30;95915.16;;;-6.61;99.42
42727;BME280;28372;56.832;60.658;2023-02-22T02:57:59;95910.84;;;-6.65;99.62
42727;BME280;28372;56.832;60.658;2023-02-22T03:00:30;95916.72;;;-6.60;99.88
42727;BME280;28372;56.832;60.658;2023-02-22T03:08:58;95919.84;;;-6.58;100.00
42727;BME280;28372;56.832;60.658;2023-02-22T03:11:39;95908.69;;;-6.63;100.00
42727;BME280;28372;56.832;60.658;2023-02-22T03:14:21;95896.31;;;-6.63;100.00
42727;BME280;28372;56.832;60.658;2023-02-22T03:17:15;95882.53;;;-6.68;100.00
42727;BME280;28372;56.832;60.658;2023-02-22T03:23:49;95864.59;;;-6.66;100.00
42727;BME280;28372;56.832;60.658;2023-02-22T03:26:10;95868.94;;;-6.53;100.00
42727;BME280;28372;56.832;60.658;2023-02-22T03:28:42;95881.78;;;-6.51;100.00
42727;BME280;28372;56.832;60.658;2023-02-22T03:31:17;95873.59;;;-6.50;100.00
42727;BME280;28372;56.832;60.658;2023-02-22T03:33:52;95889.53;;;-6.46;100.00
42727;BME280;28372;56.832;60.658;2023-02-22T03:36:27;95886.91;;;-6.38;100.00
42727;BME280;28372;56.832;60.658;2023-02-22T03:38:57;95880.41;;;-6.31;100.00
42727;BME280;28372;56.832;60.658;2023-02-22T03:41:27;95879.50;;;-6.27;100.00
42727;BME280;28372;56.832;60.658;2023-02-22T03:44:05;95896.50;;;-6.24;100.00
42727;BME280;28372;56.832;60.658;2023-02-22T03:46:37;95896.53;;;-6.15;100.00
42727;BME280;28372;56.832;60.658;2023-02-22T03:49:32;95915.38;;;-5.96;100.00
42727;BME280;28372;56.832;60.658;2023-02-22T03:52:04;95899.44;;;-5.99;100.00
42727;BME280;28372;56.832;60.658;2023-02-22T03:54:34;95917.81;;;-5.64;100.00
42727;BME280;28372;56.832;60.658;2023-02-22T03:57:25;95920.56;;;-5.43;100.00
42727;BME280;28372;56.832;60.658;2023-02-22T04:00:06;95920.88;;;-5.27;100.00
42727;BME280;28372;56.832;60.658;2023-02-22T04:02:40;95935.34;;;-5.04;100.00
42727;BME280;28372;56.832;60.658;2023-02-22T04:05:13;95949.19;;;-4.77;100.00
42727;BME280;28372;56.832;60.658;2023-02-22T04:07:42;95949.72;;;-4.54;100.00
42727;BME280;28372;56.832;60.658;2023-02-22T04:10:12;95943.91;;;-4.38;100.00
42727;BME280;28372;56.832;60.658;2023-02-22T04:12:42;95934.25;;;-4.13;100.00
42727;BME280;28372;56.832;60.658;2023-02-22T04:15:13;95941.22;;;-3.87;100.00
42727;BME280;28372;56.832;60.658;2023-02-22T04:17:42;95953.00;;;-3.64;100.00
42727;BME280;28372;56.832;60.658;2023-02-22T04:20:13;95922.88;;;-3.50;100.00
42727;BME280;28372;56.832;60.658;2023-02-22T04:22:47;95939.94;;;-3.02;100.00
42727;BME280;28372;56.832;60.658;2023-02-22T04:25:15;95924.00;;;-2.68;100.00
42727;BME280;28372;56.832;60.658;2023-02-22T04:27:44;95923.22;;;-2.44;100.00
42727;BME280;28372;56.832;60.658;2023-02-22T04:30:12;95929.72;;;-2.17;100.00
42727;BME280;28372;56.832;60.658;2023-02-22T04:32:41;95941.66;;;-1.82;100.00
42727;BME280;28372;56.832;60.658;2023-02-22T04:35:11;95940.25;;;-1.51;100.00
42727;BME280;28372;56.832;60.658;2023-02-22T04:37:40;95942.69;;;-1.14;100.00
42727;BME280;28372;56.832;60.658;2023-02-22T04:40:09;95929.19;;;-0.77;100.00
42727;BME280;28372;56.832;60.658;2023-02-22T04:42:38;95916.34;;;-0.43;100.00
42727;BME280;28372;56.832;60.658;2023-02-22T04:45:07;95912.91;;;-0.08;100.00
42727;BME280;28372;56.832;60.658;2023-02-22T04:47:37;95922.31;;;0.25;100.00
42727;BME280;28372;56.832;60.658;2023-02-22T04:50:06;95924.06;;;0.56;100.00
42727;BME280;28372;56.832;60.658;2023-02-22T04:52:34;95929.59;;;0.90;100.00
42727;BME280;28372;56.832;60.658;2023-02-22T04:55:03;95938.78;;;1.16;100.00
42727;BME280;28372;56.832;60.658;2023-02-22T04:57:32;95923.97;;;1.42;100.00
42727;BME280;28372;56.832;60.658;2023-02-22T05:00:00;95912.88;;;1.63;100.00
42727;BME280;28372;56.832;60.658;2023-02-22T05:02:30;95915.06;;;1.84;100.00
42727;BME280;28372;56.832;60.658;2023-02-22T05:04:58;95918.31;;;2.00;100.00
42727;BME280;28372;56.832;60.658;2023-02-22T05:07:25;95893.16;;;1.98;100.00
42727;BME280;28372;56.832;60.658;2023-02-22T05:09:53;95923.28;;;2.29;100.00
42727;BME280;28372;56.832;60.658;2023-02-22T05:12:20;95929.88;;;2.38;100.00
42727;BME280;28372;56.832;60.658;2023-02-22T05:14:48;95941.44;;;2.53;100.00
42727;BME280;28372;56.832;60.658;2023-02-22T05:17:15;95938.50;;;2.62;100.00
42727;BME280;28372;56.832;60.658;2023-02-22T05:19:43;95939.84;;;2.79;100.00
42727;BME280;28372;56.832;60.658;2023-02-22T05:22:11;95935.44;;;2.98;100.00
42727;BME280;28372;56.832;60.658;2023-02-22T05:24:38;95943.25;;;3.17;100.00
42727;BME280;28372;56.832;60.658;2023-02-22T05:27:06;95937.66;;;3.33;100.00
42727;BME280;28372;56.832;60.658;2023-02-22T05:29:33;95935.88;;;3.48;100.00
42727;BME280;28372;56.832;60.658;2023-02-22T05:32:01;95935.59;;;3.60;100.00
42727;BME280;28372;56.832;60.658;2023-02-22T05:34:29;95934.56;;;3.76;100.00
42727;BME280;28372;56.832;60.658;2023-02-22T05:36:57;95936.13;;;3.84;100.00
42727;BME280;28372;56.832;60.658;2023-02-22T05:39:25;95943.50;;;4.02;100.00
42727;BME280;28372;56.832;60.658;2023-02-22T05:41:52;95932.44;;;4.07;100.00
42727;BME280;28372;56.832;60.658;2023-02-22T05:44:20;95926.75;;;4.19;100.00
42727;BME280;28372;56.832;60.658;2023-02-22T05:46:47;95935.25;;;4.36;100.00
42727;BME280;28372;56.832;60.658;2023-02-22T05:49:15;95939.19;;;4.63;100.00
42727;BME280;28372;56.832;60.658;2023-02-22T05:51:43;95938.09;;;4.83;100.00
42727;BME280;28372;56.832;60.658;2023-02-22T05:54:10;95943.53;;;5.08;100.00
42727;BME280;28372;56.832;60.658;2023-02-22T05:56:38;95953.47;;;5.22;100.00
42727;BME280;28372;56.832;60.658;2023-02-22T05:59:05;95955.44;;;5.43;100.00
42727;BME280;28372;56.832;60.658;2023-02-22T06:01:33;95945.47;;;5.69;100.00
42727;BME280;28372;56.832;60.658;2023-02-22T06:04:01;95951.59;;;5.83;100.00
42727;BME280;28372;56.832;60.658;2023-02-22T06:06:28;95958.88;;;6.05;100.00
42727;BME280;28372;56.832;60.658;2023-02-22T06:08:56;95951.91;;;6.25;100.00
42727;BME280;28372;56.832;60.658;2023-02-22T06:11:23;95967.56;;;6.48;100.00
42727;BME280;28372;56.832;60.658;2023-02-22T06:13:51;95961.72;;;6.75;100.00
42727;BME280;28372;56.832;60.658;2023-02-22T06:16:20;95959.69;;;6.97;100.00
42727;BME280;28372;56.832;60.658;2023-02-22T06:18:48;95954.16;;;7.23;100.00
42727;BME280;28372;56.832;60.658;2023-02-22T06:21:16;95957.84;;;7.43;100.00
42727;BME280;28372;56.832;60.658;2023-02-22T06:23:44;95965.09;;;7.50;100.00
42727;BME280;28372;56.832;60.658;2023-02-22T06:26:15;95971.94;;;7.62;100.00
42727;BME280;28372;56.832;60.658;2023-02-22T06:28:46;95962.91;;;7.86;100.00
42727;BME280;28372;56.832;60.658;2023-02-22T06:31:14;95967.69;;;8.10;100.00
42727;BME280;28372;56.832;60.658;2023-02-22T06:33:42;95967.53;;;8.24;100.00
42727;BME280;28372;56.832;60.658;2023-02-22T06:36:10;95973.09;;;8.44;100.00
42727;BME280;28372;56.832;60.658;2023-02-22T06:38:37;95966.06;;;8.57;100.00
42727;BME280;28372;56.832;60.658;2023-02-22T06:41:05;95981.13;;;8.86;100.00
42727;BME280;28372;56.832;60.658;2023-02-22T06:43:32;95980.94;;;9.00;100.00
42727;BME280;28372;56.832;60.658;2023-02-22T06:46:00;95979.75;;;9.05;100.00
42727;BME280;28372;56.832;60.658;2023-02-22T06:48:27;95986.06;;;9.22;100.00
42727;BME280;28372;56.832;60.658;2023-02-22T06:50:55;95990.38;;;9.43;100.00
42727;BME280;28372;56.832;60.658;2023-02-22T06:53:23;95992.88;;;9.57;100.00
42727;BME280;28372;56.832;60.658;2023-02-22T06:55:52;95998.97;;;9.62;100.00
42727;BME280;28372;56.832;60.658;2023-02-22T06:58:20;95991.06;;;9.74;100.00
42727;BME280;28372;56.832;60.658;2023-02-22T07:00:48;95988.66;;;9.80;100.00
42727;BME280;28372;56.832;60.658;2023-02-22T07:03:16;95989.97;;;9.95;100.00
42727;BME280;28372;56.832;60.658;2023-02-22T07:05:44;95988.38;;;9.98;100.00
42727;BME280;28372;56.832;60.658;2023-02-22T07:08:12;95991.53;;;9.93;100.00
42727;BME280;28372;56.832;60.658;2023-02-22T07:10:39;95984.97;;;9.94;100.00
42727;BME280;28372;56.832;60.658;2023-02-22T07:13:07;95987.97;;;10.00;100.00
42727;BME280;28372;56.832;60.658;2023-02-22T07:15:35;95997.66;;;9.97;100.00
42727;BME280;28372;56.832;60.658;2023-02-22T07:18:03;95991.63;;;9.89;100.00
42727;BME280;28372;56.832;60.658;2023-02-22T07:20:31;95999.13;;;9.78;100.00
42727;BME280;28372;56.832;60.658;2023-02-22T07:22:59;95991.31;;;9.84;100.00
42727;BME280;28372;56.832;60.658;2023-02-22T07:25:27;95990.31;;;9.74;100.00
42727;BME280;28372;56.832;60.658;2023-02-22T07:27:55;95990.88;;;9.62;100.00
42727;BME280;28372;56.832;60.658;2023-02-22T07:30:31;95993.44;;;9.72;100.00
42727;BME280;28372;56.832;60.658;2023-02-22T07:33:03;95996.06;;;9.76;100.00
42727;BME280;28372;56.832;60.658;2023-02-22T07:35:33;95998.03;;;9.72;100.00
42727;BME280;28372;56.832;60.658;2023-02-22T07:38:06;95997.59;;;9.77;100.00
42727;BME280;28372;56.832;60.658;2023-02-22T07:40:35;95997.28;;;9.71;100.00
42727;BME280;28372;56.832;60.658;2023-02-22T07:43:12;96005.41;;;9.71;100.00
42727;BME280;28372;56.832;60.658;2023-02-22T07:45:40;96005.63;;;9.57;100.00
42727;BME280;28372;56.832;60.658;2023-02-22T07:48:09;95995.16;;;9.59;100.00
42727;BME280;28372;56.832;60.658;2023-02-22T07:50:39;95988.75;;;9.49;100.00
42727;BME280;28372;56.832;60.658;2023-02-22T07:53:13;95992.22;;;9.50;87.73
42727;BME280;28372;56.832;60.658;2023-02-22T07:55:41;95989.97;;;9.45;83.12
42727;BME280;28372;56.832;60.658;2023-02-22T07:58:13;95986.53;;;9.44;72.88
42727;BME280;28372;56.832;60.658;2023-02-22T08:00:41;95985.09;;;9.36;66.90
42727;BME280;28372;56.832;60.658;2023-02-22T08:03:12;95978.13;;;9.38;68.19
42727;BME280;28372;56.832;60.658;2023-02-22T08:05:43;95980.47;;;9.36;64.90
42727;BME280;28372;56.832;60.658;2023-02-22T08:08:11;95971.78;;;9.21;60.94
42727;BME280;28372;56.832;60.658;2023-02-22T08:10:41;95951.44;;;8.89;56.85
42727;BME280;28372;56.832;60.658;2023-02-22T08:13:09;95968.41;;;8.86;55.74
42727;BME280;28372;56.832;60.658;2023-02-22T08:15:38;95967.03;;;8.74;54.06
42727;BME280;28372;56.832;60.658;2023-02-22T08:18:09;95967.53;;;8.62;51.37
42727;BME280;28372;56.832;60.658;2023-02-22T08:20:37;95961.66;;;8.36;50.56
42727;BME280;28372;56.832;60.658;2023-02-22T08:23:08;95968.75;;;8.19;50.82
42727;BME280;28372;56.832;60.658;2023-02-22T08:25:35;95962.81;;;7.94;49.00
42727;BME280;28372;56.832;60.658;2023-02-22T08:28:06;95970.97;;;7.86;47.64
42727;BME280;28372;56.832;60.658;2023-02-22T08:30:34;95959.31;;;7.55;47.37
42727;BME280;28372;56.832;60.658;2023-02-22T08:33:05;95949.84;;;7.36;50.97
42727;BME280;28372;56.832;60.658;2023-02-22T08:35:33;95945.38;;;7.15;50.93
42727;BME280;28372;56.832;60.658;2023-02-22T08:38:04;95960.03;;;6.99;49.60
42727;BME280;28372;56.832;60.658;2023-02-22T08:40:34;95956.31;;;6.79;49.52
42727;BME280;28372;56.832;60.658;2023-02-22T08:43:03;95963.72;;;6.57;49.29
42727;BME280;28372;56.832;60.658;2023-02-22T08:45:31;95948.41;;;6.43;45.64
42727;BME280;28372;56.832;60.658;2023-02-22T08:47:58;95947.72;;;6.24;46.30
42727;BME280;28372;56.832;60.658;2023-02-22T08:50:29;95941.56;;;6.13;45.01
42727;BME280;28372;56.832;60.658;2023-02-22T08:52:58;95940.06;;;5.94;42.85
42727;BME280;28372;56.832;60.658;2023-02-22T08:55:30;95933.94;;;5.79;38.90
42727;BME280;28372;56.832;60.658;2023-02-22T08:57:59;95937.03;;;5.59;37.27
42727;BME280;28372;56.832;60.658;2023-02-22T09:00:31;95932.06;;;5.51;37.65
42727;BME280;28372;56.832;60.658;2023-02-22T09:03:00;95943.91;;;5.35;37.13
42727;BME280;28372;56.832;60.658;2023-02-22T09:05:29;95936.25;;;5.23;37.19
42727;BME280;28372;56.832;60.658;2023-02-22T09:07:58;95930.13;;;5.08;37.13
42727;BME280;28372;56.832;60.658;2023-02-22T09:10:29;95936.22;;;5.01;36.90
42727;BME280;28372;56.832;60.658;2023-02-22T09:12:57;95934.22;;;4.66;38.74
42727;BME280;28372;56.832;60.658;2023-02-22T09:15:27;95938.03;;;4.57;36.72
42727;BME280;28372;56.832;60.658;2023-02-22T09:17:55;95934.50;;;4.46;38.36
42727;BME280;28372;56.832;60.658;2023-02-22T09:20:23;95936.03;;;4.40;37.50
42727;BME280;28372;56.832;60.658;2023-02-22T09:22:52;95929.50;;;4.26;37.91
42727;BME280;28372;56.832;60.658;2023-02-22T09:25:21;95952.00;;;4.18;38.06
42727;BME280;28372;56.832;60.658;2023-02-22T09:27:50;95945.06;;;4.10;38.24
42727;BME280;28372;56.832;60.658;2023-02-22T09:30:27;95930.91;;;4.06;40.01
42727;BME280;28372;56.832;60.658;2023-02-22T09:33:10;95934.97;;;3.85;38.85
42727;BME280;28372;56.832;60.658;2023-02-22T09:35:40;95932.97;;;3.68;38.45
42727;BME280;28372;56.832;60.658;2023-02-22T09:38:22;95925.72;;;3.68;39.94
42727;BME280;28372;56.832;60.658;2023-02-22T09:40:54;95917.56;;;3.50;38.11
42727;BME280;28372;56.832;60.658;2023-02-22T09:44:07;95921.06;;;3.58;39.67
42727;BME280;28372;56.832;60.658;2023-02-22T09:46:38;95923.56;;;3.36;38.71
42727;BME280;28372;56.832;60.658;2023-02-22T09:49:27;95922.75;;;3.32;38.44
42727;BME280;28372;56.832;60.658;2023-02-22T09:52:10;95913.94;;;3.28;39.08
42727;BME280;28372;56.832;60.658;2023-02-22T09:54:43;95913.84;;;3.14;39.59
42727;BME280;28372;56.832;60.658;2023-02-22T09:57:18;95916.81;;;3.08;39.36
42727;BME280;28372;56.832;60.658;2023-02-22T09:59:59;95921.03;;;3.06;39.76
42727;BME280;28372;56.832;60.658;2023-02-22T10:03:28;95912.16;;;2.95;38.02
42727;BME280;28372;56.832;60.658;2023-02-22T10:05:55;95918.81;;;2.78;41.35
42727;BME280;28372;56.832;60.658;2023-02-22T10:08:28;95912.16;;;2.57;38.83
42727;BME280;28372;56.832;60.658;2023-02-22T10:13:49;95907.94;;;2.22;38.81
42727;BME280;28372;56.832;60.658;2023-02-22T10:19:06;95905.81;;;2.04;39.35
42727;BME280;28372;56.832;60.658;2023-02-22T10:22:05;95899.03;;;2.11;41.66
42727;BME280;28372;56.832;60.658;2023-02-22T10:27:18;95887.53;;;1.76;40.24
42727;BME280;28372;56.832;60.658;2023-02-22T10:30:18;95899.56;;;1.93;42.64
42727;BME280;28372;56.832;60.658;2023-02-22T10:32:58;95899.66;;;1.70;41.26
42727;BME280;28372;56.832;60.658;2023-02-22T10:35:33;95888.41;;;1.57;41.28
42727;BME280;28372;56.832;60.658;2023-02-22T10:38:11;95883.03;;;1.53;41.28
42727;BME280;28372;56.832;60.658;2023-02-22T10:40:48;95893.59;;;1.46;41.08
42727;BME280;28372;56.832;60.658;2023-02-22T10:43:16;95889.91;;;1.28;42.61
42727;BME280;28372;56.832;60.658;2023-02-22T10:45:44;95881.38;;;1.18;40.93
42727;BME280;28372;56.832;60.658;2023-02-22T10:48:14;95879.47;;;1.19;40.69
42727;BME280;28372;56.832;60.658;2023-02-22T10:50:45;95881.31;;;1.15;41.23
42727;BME280;28372;56.832;60.658;2023-02-22T10:53:14;95885.41;;;1.09;42.59
42727;BME280;28372;56.832;60.658;2023-02-22T11:01:18;95857.91;;;1.01;42.09
42727;BME280;28372;56.832;60.658;2023-02-22T11:03:56;95857.19;;;1.04;42.98
42727;BME280;28372;56.832;60.658;2023-02-22T11:06:25;95860.03;;;0.92;42.80
42727;BME280;28372;56.832;60.658;2023-02-22T11:09:13;95865.06;;;0.97;43.69
42727;BME280;28372;56.832;60.658;2023-02-22T11:11:43;95869.38;;;0.82;42.96
42727;BME280;28372;56.832;60.658;2023-02-22T11:14:24;95867.25;;;0.91;44.64
42727;BME280;28372;56.832;60.658;2023-02-22T11:16:55;95863.31;;;0.81;43.36
42727;BME280;28372;56.832;60.658;2023-02-22T11:19:28;95866.72;;;0.82;42.44
42727;BME280;28372;56.832;60.658;2023-02-22T11:22:12;95867.09;;;0.80;43.61
42727;BME280;28372;56.832;60.658;2023-02-22T11:25:03;95847.72;;;0.60;45.09
42727;BME280;28372;56.832;60.658;2023-02-22T11:27:38;95859.50;;;0.59;43.52
42727;BME280;28372;56.832;60.658;2023-02-22T11:32:53;95846.63;;;0.42;42.14
42727;BME280;28372;56.832;60.658;2023-02-22T11:40:44;95846.50;;;0.34;42.22
42727;BME280;28372;56.832;60.658;2023-02-22T11:43:17;95845.41;;;0.36;44.28
42727;BME280;28372;56.832;60.658;2023-02-22T11:48:34;95834.28;;;0.30;41.88
42727;BME280;28372;56.832;60.658;2023-02-22T11:54:11;95836.63;;;0.35;44.29
42727;BME280;28372;56.832;60.658;2023-02-22T11:56:47;95838.34;;;0.24;42.93
42727;BME280;28372;56.832;60.658;2023-02-22T11:59:35;95840.34;;;0.30;43.21
42727;BME280;28372;56.832;60.658;2023-02-22T12:07:47;95846.75;;;0.26;43.75
42727;BME280;28372;56.832;60.658;2023-02-22T12:10:37;95844.72;;;0.19;42.71
42727;BME280;28372;56.832;60.658;2023-02-22T12:19:10;95856.19;;;0.23;43.21
42727;BME280;28372;56.832;60.658;2023-02-22T12:21:43;95855.06;;;0.05;43.09
42727;BME280;28372;56.832;60.658;2023-02-22T12:24:20;95850.66;;;0.12;43.10
42727;BME280;28372;56.832;60.658;2023-02-22T12:26:54;95853.41;;;-0.04;43.38
42727;BME280;28372;56.832;60.658;2023-02-22T12:32:09;95842.28;;;-0.09;43.72
42727;BME280;28372;56.832;60.658;2023-02-22T12:37:23;95847.72;;;-0.22;43.72
42727;BME280;28372;56.832;60.658;2023-02-22T12:40:05;95841.28;;;-0.21;43.21
42727;BME280;28372;56.832;60.658;2023-02-22T12:43:33;95834.03;;;-0.24;44.02
42727;BME280;28372;56.832;60.658;2023-02-22T12:48:32;95831.53;;;-0.52;43.29
42727;BME280;28372;56.832;60.658;2023-02-22T12:53:57;95840.97;;;-0.55;44.07
42727;BME280;28372;56.832;60.658;2023-02-22T12:56:42;95824.19;;;-0.59;44.20
42727;BME280;28372;56.832;60.658;2023-02-22T12:59:23;95827.72;;;-0.71;43.88
42727;BME280;28372;56.832;60.658;2023-02-22T13:01:57;95825.25;;;-0.79;43.26
42727;BME280;28372;56.832;60.658;2023-02-22T13:04:27;95819.78;;;-0.87;42.93
42727;BME280;28372;56.832;60.658;2023-02-22T13:07:14;95825.50;;;-0.84;44.56
42727;BME280;28372;56.832;60.658;2023-02-22T13:09:49;95829.75;;;-0.99;43.46
42727;BME280;28372;56.832;60.658;2023-02-22T13:12:44;95823.91;;;-0.89;45.13
42727;BME280;28372;56.832;60.658;2023-02-22T13:20:58;95827.25;;;-1.24;44.09
42727;BME280;28372;56.832;60.658;2023-02-22T13:26:22;95836.75;;;-1.39;44.42
42727;BME280;28372;56.832;60.658;2023-02-22T13:29:03;95835.22;;;-1.40;45.17
42727;BME280;28372;56.832;60.658;2023-02-22T13:32:08;95829.22;;;-1.37;45.52
42727;BME280;28372;56.832;60.658;2023-02-22T13:43:40;95835.78;;;-1.63;45.32
42727;BME280;28372;56.832;60.658;2023-02-22T13:52:10;95848.06;;;-1.86;45.63
42727;BME280;28372;56.832;60.658;2023-02-22T13:54:43;95843.13;;;-2.00;44.48
42727;BME280;28372;56.832;60.658;2023-02-22T13:57:22;95845.59;;;-2.08;44.73
42727;BME280;28372;56.832;60.658;2023-02-22T14:10:59;95843.97;;;-2.25;46.77
42727;BME280;28372;56.832;60.658;2023-02-22T14:13:31;95853.59;;;-2.32;45.25
42727;BME280;28372;56.832;60.658;2023-02-22T14:18:40;95845.81;;;-2.53;45.94
42727;BME280;28372;56.832;60.658;2023-02-22T14:21:15;95849.69;;;-2.51;46.24
42727;BME280;28372;56.832;60.658;2023-02-22T14:23:55;95851.78;;;-2.56;45.73
42727;BME280;28372;56.832;60.658;2023-02-22T14:26:37;95845.16;;;-2.50;46.96
42727;BME280;28372;56.832;60.658;2023-02-22T14:36:50;95844.50;;;-2.60;47.12
42727;BME280;28372;56.832;60.658;2023-02-22T14:39:35;95832.47;;;-2.69;47.07
42727;BME280;28372;56.832;60.658;2023-02-22T14:42:11;95829.41;;;-2.59;46.91
42727;BME280;28372;56.832;60.658;2023-02-22T14:47:53;95820.94;;;-2.77;47.54
42727;BME280;28372;56.832;60.658;2023-02-22T14:55:46;95825.91;;;-2.88;48.58
42727;BME280;28372;56.832;60.658;2023-02-22T14:58:21;95827.66;;;-2.92;47.54
42727;BME280;28372;56.832;60.658;2023-02-22T15:00:50;95818.50;;;-2.95;47.92
42727;BME280;28372;56.832;60.658;2023-02-22T15:03:27;95828.22;;;-2.99;47.49
42727;BME280;28372;56.832;60.658;2023-02-22T15:06:18;95817.66;;;-2.99;47.55
42727;BME280;28372;56.832;60.658;2023-02-22T15:08:47;95816.09;;;-2.87;47.67
42727;BME280;28372;56.832;60.658;2023-02-22T15:11:27;95827.56;;;-2.83;49.21
42727;BME280;28372;56.832;60.658;2023-02-22T15:14:02;95827.44;;;-2.99;46.71
42727;BME280;28372;56.832;60.658;2023-02-22T15:16:54;95818.97;;;-3.05;47.34
42727;BME280;28372;56.832;60.658;2023-02-22T15:19:25;95833.94;;;-2.97;47.83
42727;BME280;28372;56.832;60.658;2023-02-22T15:21:55;95837.59;;;-3.01;47.60
42727;BME280;28372;56.832;60.658;2023-02-22T15:24:29;95825.91;;;-3.00;47.86
42727;BME280;28372;56.832;60.658;2023-02-22T15:27:07;95820.94;;;-3.02;48.40
42727;BME280;28372;56.832;60.658;2023-02-22T15:29:41;95830.00;;;-3.03;47.67
42727;BME280;28372;56.832;60.658;2023-02-22T15:34:45;95828.31;;;-3.07;47.58